sensor_id;sensor_type;location;lat;lon;timestamp;pressure;altitude;pressure_sealevel;temperature;humidity
10480;BME280;12789;42.610;23.040;2022-11-15T00:01:38;94098.41;;;1.75;100.00
10480;BME280;12789;42.610;23.040;2022-11-15T00:04:06;94098.22;;;2.09;100.00
10480;BME280;12789;42.610;23.040;2022-11-15T00:06:36;94118.34;;;2.00;100.00
10480;BME280;12789;42.610;23.040;2022-11-15T00:09:04;94140.38;;;2.02;100.00
10480;BME280;12789;42.610;23.040;2022-11-15T00:11:32;94111.09;;;1.92;100.00
10480;BME280;12789;42.610;23.040;2022-11-15T00:13:59;94111.09;;;2.08;100.00
10480;BME280;12789;42.610;23.040;2022-11-15T00:16:30;94089.31;;;2.01;100.00
10480;BME280;12789;42.610;23.040;2022-11-15T00:18:58;94118.69;;;2.09;100.00
10480;BME280;12789;42.610;23.040;2022-11-15T00:21:25;94051.56;;;1.75;100.00
10480;BME280;12789;42.610;23.040;2022-11-15T00:23:52;94093.63;;;2.00;100.00
10480;BME280;12789;42.610;23.040;2022-11-15T00:26:20;94107.16;;;2.02;100.00
10480;BME280;12789;42.610;23.040;2022-11-15T00:28:46;94126.91;;;2.14;100.00
10480;BME280;12789;42.610;23.040;2022-11-15T00:31:14;94096.25;;;2.14;100.00
10480;BME280;12789;42.610;23.040;2022-11-15T00:33:43;94068.25;;;1.97;100.00
10480;BME280;12789;42.610;23.040;2022-11-15T00:36:12;94098.06;;;1.97;100.00
10480;BME280;12789;42.610;23.040;2022-11-15T00:38:40;94107.28;;;2.15;100.00
10480;BME280;12789;42.610;23.040;2022-11-15T00:41:08;94088.41;;;2.17;100.00
10480;BME280;12789;42.610;23.040;2022-11-15T00:43:36;94086.59;;;2.04;100.00
10480;BME280;12789;42.610;23.040;2022-11-15T00:46:05;94066.91;;;2.06;100.00
10480;BME280;12789;42.610;23.040;2022-11-15T00:48:34;94083.31;;;2.02;100.00
10480;BME280;12789;42.610;23.040;2022-11-15T00:51:01;94095.44;;;1.67;100.00
10480;BME280;12789;42.610;23.040;2022-11-15T00:53:30;94084.56;;;1.79;100.00
10480;BME280;12789;42.610;23.040;2022-11-15T00:56:00;94114.88;;;1.85;100.00
10480;BME280;12789;42.610;23.040;2022-11-15T00:58:28;94055.81;;;1.60;100.00
10480;BME280;12789;42.610;23.040;2022-11-15T01:00:56;94103.69;;;2.03;100.00
10480;BME280;12789;42.610;23.040;2022-11-15T01:03:23;94107.16;;;1.87;100.00
10480;BME280;12789;42.610;23.040;2022-11-15T01:05:59;94045.25;;;1.51;100.00
10480;BME280;12789;42.610;23.040;2022-11-15T01:08:39;94097.06;;;1.68;100.00
10480;BME280;12789;42.610;23.040;2022-11-15T01:11:09;94076.53;;;1.54;100.00
10480;BME280;12789;42.610;23.040;2022-11-15T01:14:10;94064.59;;;1.40;100.00
10480;BME280;12789;42.610;23.040;2022-11-15T01:16:36;94100.69;;;1.64;100.00
10480;BME280;12789;42.610;23.040;2022-11-15T01:19:03;94079.09;;;1.39;100.00
10480;BME280;12789;42.610;23.040;2022-11-15T01:21:35;94114.22;;;1.66;100.00
10480;BME280;12789;42.610;23.040;2022-11-15T01:24:07;94085.53;;;1.61;100.00
10480;BME280;12789;42.610;23.040;2022-11-15T01:26:37;94061.28;;;1.38;100.00
10480;BME280;12789;42.610;23.040;2022-11-15T01:29:04;94083.06;;;1.75;100.00
10480;BME280;12789;42.610;23.040;2022-11-15T01:31:32;94070.06;;;1.64;100.00
10480;BME280;12789;42.610;23.040;2022-11-15T01:33:59;94094.28;;;1.57;100.00
10480;BME280;12789;42.610;23.040;2022-11-15T01:36:26;94062.78;;;1.42;100.00
10480;BME280;12789;42.610;23.040;2022-11-15T01:38:54;94094.56;;;1.51;100.00
10480;BME280;12789;42.610;23.040;2022-11-15T01:41:24;94042.50;;;1.39;100.00
10480;BME280;12789;42.610;23.040;2022-11-15T01:43:54;94067.91;;;1.57;100.00
10480;BME280;12789;42.610;23.040;2022-11-15T01:46:30;94107.63;;;1.62;100.00
10480;BME280;12789;42.610;23.040;2022-11-15T01:49:02;94085.28;;;1.66;100.00
10480;BME280;12789;42.610;23.040;2022-11-15T01:51:31;94092.88;;;1.67;100.00
10480;BME280;12789;42.610;23.040;2022-11-15T01:54:02;94067.84;;;1.58;100.00
10480;BME280;12789;42.610;23.040;2022-11-15T01:56:37;94085.94;;;1.54;100.00
10480;BME280;12789;42.610;23.040;2022-11-15T01:59:08;94102.06;;;1.54;100.00
10480;BME280;12789;42.610;23.040;2022-11-15T02:01:35;94064.84;;;1.50;100.00
10480;BME280;12789;42.610;23.040;2022-11-15T02:04:06;94070.69;;;1.52;100.00
10480;BME280;12789;42.610;23.040;2022-11-15T02:06:36;94065.56;;;1.37;100.00
10480;BME280;12789;42.610;23.040;2022-11-15T02:09:05;94062.03;;;1.40;100.00
10480;BME280;12789;42.610;23.040;2022-11-15T02:11:34;94077.13;;;1.59;100.00
10480;BME280;12789;42.610;23.040;2022-11-15T02:14:03;94074.25;;;1.50;100.00
10480;BME280;12789;42.610;23.040;2022-11-15T02:16:37;94075.50;;;1.58;100.00
10480;BME280;12789;42.610;23.040;2022-11-15T02:19:20;94040.03;;;1.37;100.00
10480;BME280;12789;42.610;23.040;2022-11-15T02:22:04;94065.13;;;1.61;100.00
10480;BME280;12789;42.610;23.040;2022-11-15T02:24:55;94047.47;;;1.42;100.00
10480;BME280;12789;42.610;23.040;2022-11-15T02:28:02;94059.25;;;1.44;100.00
10480;BME280;12789;42.610;23.040;2022-11-15T02:30:43;94056.13;;;1.39;100.00
10480;BME280;12789;42.610;23.040;2022-11-15T02:33:21;94029.81;;;1.37;100.00
10480;BME280;12789;42.610;23.040;2022-11-15T02:36:01;94009.56;;;1.19;100.00
10480;BME280;12789;42.610;23.040;2022-11-15T02:38:41;94044.66;;;1.31;100.00
10480;BME280;12789;42.610;23.040;2022-11-15T02:41:30;94026.78;;;1.31;100.00
10480;BME280;12789;42.610;23.040;2022-11-15T02:44:08;94033.06;;;1.56;100.00
10480;BME280;12789;42.610;23.040;2022-11-15T02:46:47;94032.97;;;1.27;100.00
10480;BME280;12789;42.610;23.040;2022-11-15T02:49:34;94060.78;;;1.46;100.00
10480;BME280;12789;42.610;23.040;2022-11-15T02:52:14;94025.69;;;1.19;100.00
10480;BME280;12789;42.610;23.040;2022-11-15T02:54:55;94013.31;;;1.12;100.00
10480;BME280;12789;42.610;23.040;2022-11-15T02:57:36;94045.41;;;1.33;100.00
10480;BME280;12789;42.610;23.040;2022-11-15T03:00:09;94050.25;;;1.37;100.00
10480;BME280;12789;42.610;23.040;2022-11-15T03:03:28;94054.88;;;1.31;100.00
10480;BME280;12789;42.610;23.040;2022-11-15T03:06:11;94041.97;;;1.01;100.00
10480;BME280;12789;42.610;23.040;2022-11-15T03:08:57;94055.16;;;1.09;100.00
10480;BME280;12789;42.610;23.040;2022-11-15T03:11:35;94044.69;;;1.14;100.00
10480;BME280;12789;42.610;23.040;2022-11-15T03:14:10;94027.31;;;1.05;100.00
10480;BME280;12789;42.610;23.040;2022-11-15T03:16:44;94009.28;;;1.08;100.00
10480;BME280;12789;42.610;23.040;2022-11-15T03:19:28;94041.69;;;1.23;100.00
10480;BME280;12789;42.610;23.040;2022-11-15T03:21:59;94056.34;;;1.35;100.00
10480;BME280;12789;42.610;23.040;2022-11-15T03:24:30;94011.84;;;1.08;100.00
10480;BME280;12789;42.610;23.040;2022-11-15T03:26:59;94062.75;;;1.26;100.00
10480;BME280;12789;42.610;23.040;2022-11-15T03:29:32;94058.31;;;1.30;100.00
10480;BME280;12789;42.610;23.040;2022-11-15T03:32:08;94070.81;;;1.19;100.00
10480;BME280;12789;42.610;23.040;2022-11-15T03:34:45;94039.75;;;1.11;100.00
10480;BME280;12789;42.610;23.040;2022-11-15T03:37:15;94010.19;;;1.07;100.00
10480;BME280;12789;42.610;23.040;2022-11-15T03:39:43;94013.91;;;1.17;100.00
10480;BME280;12789;42.610;23.040;2022-11-15T03:42:20;94061.91;;;1.10;100.00
10480;BME280;12789;42.610;23.040;2022-11-15T03:44:52;94029.59;;;0.94;100.00
10480;BME280;12789;42.610;23.040;2022-11-15T03:47:26;94024.88;;;1.19;100.00
10480;BME280;12789;42.610;23.040;2022-11-15T03:49:59;93978.31;;;0.83;100.00
10480;BME280;12789;42.610;23.040;2022-11-15T03:52:31;93994.44;;;0.83;100.00
10480;BME280;12789;42.610;23.040;2022-11-15T03:55:01;93997.75;;;1.01;100.00
10480;BME280;12789;42.610;23.040;2022-11-15T03:57:29;94028.31;;;1.02;100.00
10480;BME280;12789;42.610;23.040;2022-11-15T03:59:57;94005.69;;;0.79;100.00
10480;BME280;12789;42.610;23.040;2022-11-15T04:02:24;94013.22;;;0.98;100.00
10480;BME280;12789;42.610;23.040;2022-11-15T04:04:51;94010.69;;;0.98;100.00
10480;BME280;12789;42.610;23.040;2022-11-15T04:07:20;94011.09;;;1.06;100.00
10480;BME280;12789;42.610;23.040;2022-11-15T04:09:48;94009.88;;;1.13;100.00
10480;BME280;12789;42.610;23.040;2022-11-15T04:12:33;94004.94;;;1.10;100.00
10480;BME280;12789;42.610;23.040;2022-11-15T04:15:02;94006.47;;;0.97;100.00
10480;BME280;12789;42.610;23.040;2022-11-15T04:17:38;93991.06;;;0.83;100.00
10480;BME280;12789;42.610;23.040;2022-11-15T04:20:08;94014.81;;;1.00;100.00
10480;BME280;12789;42.610;23.040;2022-11-15T04:22:55;93955.66;;;0.77;100.00
10480;BME280;12789;42.610;23.040;2022-11-15T04:25:41;94008.66;;;0.87;100.00
10480;BME280;12789;42.610;23.040;2022-11-15T04:28:08;93999.91;;;0.76;100.00
10480;BME280;12789;42.610;23.040;2022-11-15T04:30:35;94018.72;;;0.90;100.00
10480;BME280;12789;42.610;23.040;2022-11-15T04:33:03;93999.63;;;0.97;100.00
10480;BME280;12789;42.610;23.040;2022-11-15T04:35:30;93991.16;;;0.97;100.00
10480;BME280;12789;42.610;23.040;2022-11-15T04:37:59;93996.28;;;0.97;100.00
10480;BME280;12789;42.610;23.040;2022-11-15T04:40:27;94022.16;;;0.89;100.00
10480;BME280;12789;42.610;23.040;2022-11-15T04:42:54;93982.50;;;0.84;100.00
10480;BME280;12789;42.610;23.040;2022-11-15T04:45:21;93966.91;;;0.73;100.00
10480;BME280;12789;42.610;23.040;2022-11-15T04:47:49;93983.72;;;0.77;100.00
10480;BME280;12789;42.610;23.040;2022-11-15T04:50:17;94014.78;;;0.85;100.00
10480;BME280;12789;42.610;23.040;2022-11-15T04:52:50;93970.81;;;0.47;100.00
10480;BME280;12789;42.610;23.040;2022-11-15T04:55:20;93951.75;;;3.48;100.00
10480;BME280;12789;42.610;23.040;2022-11-15T04:57:57;93987.81;;;1.42;100.00
10480;BME280;12789;42.610;23.040;2022-11-15T05:00:28;93951.25;;;0.96;100.00
10480;BME280;12789;42.610;23.040;2022-11-15T05:02:56;93986.09;;;1.12;100.00
10480;BME280;12789;42.610;23.040;2022-11-15T05:05:44;93966.41;;;0.99;100.00
10480;BME280;12789;42.610;23.040;2022-11-15T05:08:11;93960.38;;;0.84;100.00
10480;BME280;12789;42.610;23.040;2022-11-15T05:10:41;93985.16;;;0.98;100.00
10480;BME280;12789;42.610;23.040;2022-11-15T05:13:09;93983.25;;;0.86;100.00
10480;BME280;12789;42.610;23.040;2022-11-15T05:15:36;93974.81;;;0.68;100.00
10480;BME280;12789;42.610;23.040;2022-11-15T05:18:03;93938.72;;;0.76;100.00
10480;BME280;12789;42.610;23.040;2022-11-15T05:20:31;93979.72;;;0.88;100.00
10480;BME280;12789;42.610;23.040;2022-11-15T05:22:58;93975.72;;;0.67;100.00
10480;BME280;12789;42.610;23.040;2022-11-15T05:25:25;93995.28;;;0.84;100.00
10480;BME280;12789;42.610;23.040;2022-11-15T05:27:54;93932.75;;;1.39;100.00
10480;BME280;12789;42.610;23.040;2022-11-15T05:30:21;93981.72;;;0.99;100.00
10480;BME280;12789;42.610;23.040;2022-11-15T05:32:48;93981.50;;;0.86;100.00
10480;BME280;12789;42.610;23.040;2022-11-15T05:35:20;93986.56;;;0.88;100.00
10480;BME280;12789;42.610;23.040;2022-11-15T05:37:48;93987.31;;;1.05;100.00
10480;BME280;12789;42.610;23.040;2022-11-15T05:40:15;93959.16;;;1.07;100.00
10480;BME280;12789;42.610;23.040;2022-11-15T05:42:43;93970.94;;;0.94;100.00
10480;BME280;12789;42.610;23.040;2022-11-15T05:45:13;93980.38;;;0.92;100.00
10480;BME280;12789;42.610;23.040;2022-11-15T05:47:41;93965.53;;;2.20;100.00
10480;BME280;12789;42.610;23.040;2022-11-15T05:50:11;93949.38;;;1.30;100.00
10480;BME280;12789;42.610;23.040;2022-11-15T05:52:39;93972.31;;;1.15;100.00
10480;BME280;12789;42.610;23.040;2022-11-15T05:55:07;93954.72;;;0.95;100.00
10480;BME280;12789;42.610;23.040;2022-11-15T05:57:35;93963.63;;;1.19;100.00
10480;BME280;12789;42.610;23.040;2022-11-15T06:00:04;93970.78;;;1.28;100.00
10480;BME280;12789;42.610;23.040;2022-11-15T06:02:33;93972.84;;;1.37;100.00
10480;BME280;12789;42.610;23.040;2022-11-15T06:05:01;93978.44;;;1.28;100.00
10480;BME280;12789;42.610;23.040;2022-11-15T06:07:28;93950.53;;;1.09;100.00
10480;BME280;12789;42.610;23.040;2022-11-15T06:09:56;93975.41;;;1.37;100.00
10480;BME280;12789;42.610;23.040;2022-11-15T06:12:23;93992.53;;;1.35;100.00
10480;BME280;12789;42.610;23.040;2022-11-15T06:14:50;93973.19;;;1.31;100.00
10480;BME280;12789;42.610;23.040;2022-11-15T06:17:17;93987.66;;;1.45;100.00
10480;BME280;12789;42.610;23.040;2022-11-15T06:19:46;93973.19;;;1.61;100.00
10480;BME280;12789;42.610;23.040;2022-11-15T06:22:13;93970.84;;;1.72;100.00
10480;BME280;12789;42.610;23.040;2022-11-15T06:24:40;93979.81;;;1.64;100.00
10480;BME280;12789;42.610;23.040;2022-11-15T06:27:10;93992.94;;;1.73;100.00
10480;BME280;12789;42.610;23.040;2022-11-15T06:29:37;93989.13;;;1.80;100.00
10480;BME280;12789;42.610;23.040;2022-11-15T06:32:04;93974.88;;;1.76;100.00
10480;BME280;12789;42.610;23.040;2022-11-15T06:34:32;93982.69;;;1.89;100.00
10480;BME280;12789;42.610;23.040;2022-11-15T06:37:02;93953.88;;;1.56;100.00
10480;BME280;12789;42.610;23.040;2022-11-15T06:39:30;93985.69;;;1.95;100.00
10480;BME280;12789;42.610;23.040;2022-11-15T06:41:57;93977.03;;;2.13;100.00
10480;BME280;12789;42.610;23.040;2022-11-15T06:44:24;93922.59;;;1.97;100.00
10480;BME280;12789;42.610;23.040;2022-11-15T06:46:51;93970.94;;;2.30;100.00
10480;BME280;12789;42.610;23.040;2022-11-15T06:49:18;93973.56;;;2.14;100.00
10480;BME280;12789;42.610;23.040;2022-11-15T06:51:45;93968.41;;;2.30;100.00
10480;BME280;12789;42.610;23.040;2022-11-15T06:54:14;93958.94;;;2.16;100.00
10480;BME280;12789;42.610;23.040;2022-11-15T06:56:41;93969.81;;;2.49;100.00
10480;BME280;12789;42.610;23.040;2022-11-15T06:59:08;93934.88;;;2.34;100.00
10480;BME280;12789;42.610;23.040;2022-11-15T07:01:35;93924.75;;;2.19;100.00
10480;BME280;12789;42.610;23.040;2022-11-15T07:04:03;93951.72;;;2.66;100.00
10480;BME280;12789;42.610;23.040;2022-11-15T07:06:30;93945.16;;;3.18;100.00
10480;BME280;12789;42.610;23.040;2022-11-15T07:08:57;93960.44;;;3.46;100.00
10480;BME280;12789;42.610;23.040;2022-11-15T07:11:26;93928.75;;;4.51;100.00
10480;BME280;12789;42.610;23.040;2022-11-15T07:13:53;93916.03;;;4.49;100.00
10480;BME280;12789;42.610;23.040;2022-11-15T07:16:20;93910.31;;;3.68;100.00
10480;BME280;12789;42.610;23.040;2022-11-15T07:18:47;93883.97;;;3.66;100.00
10480;BME280;12789;42.610;23.040;2022-11-15T07:21:14;93859.31;;;9.16;100.00
10480;BME280;12789;42.610;23.040;2022-11-15T07:23:41;93889.03;;;6.91;100.00
10480;BME280;12789;42.610;23.040;2022-11-15T07:26:08;93872.44;;;8.74;100.00
10480;BME280;12789;42.610;23.040;2022-11-15T07:28:37;93883.53;;;9.54;100.00
10480;BME280;12789;42.610;23.040;2022-11-15T07:31:05;93918.22;;;6.35;100.00
10480;BME280;12789;42.610;23.040;2022-11-15T07:33:32;93928.13;;;5.10;100.00
10480;BME280;12789;42.610;23.040;2022-11-15T07:36:00;93976.63;;;5.02;100.00
10480;BME280;12789;42.610;23.040;2022-11-15T07:38:28;93930.53;;;5.36;100.00
10480;BME280;12789;42.610;23.040;2022-11-15T07:40:57;93932.47;;;5.81;100.00
10480;BME280;12789;42.610;23.040;2022-11-15T07:43:25;93952.34;;;5.67;100.00
10480;BME280;12789;42.610;23.040;2022-11-15T07:45:55;93948.41;;;5.50;100.00
10480;BME280;12789;42.610;23.040;2022-11-15T07:48:22;93946.09;;;6.17;100.00
10480;BME280;12789;42.610;23.040;2022-11-15T07:50:49;93939.56;;;5.42;100.00
10480;BME280;12789;42.610;23.040;2022-11-15T07:53:16;93941.94;;;5.45;100.00
10480;BME280;12789;42.610;23.040;2022-11-15T07:55:44;93964.72;;;5.97;100.00
10480;BME280;12789;42.610;23.040;2022-11-15T07:58:11;93961.00;;;6.01;100.00
10480;BME280;12789;42.610;23.040;2022-11-15T08:00:39;93933.19;;;6.30;100.00
10480;BME280;12789;42.610;23.040;2022-11-15T08:03:09;93954.69;;;6.63;100.00
10480;BME280;12789;42.610;23.040;2022-11-15T08:05:38;93946.06;;;6.86;100.00
10480;BME280;12789;42.610;23.040;2022-11-15T08:08:06;93953.91;;;6.74;100.00
10480;BME280;12789;42.610;23.040;2022-11-15T08:10:35;93943.88;;;7.47;100.00
10480;BME280;12789;42.610;23.040;2022-11-15T08:13:03;93955.31;;;6.89;100.00
10480;BME280;12789;42.610;23.040;2022-11-15T08:15:31;93935.41;;;7.02;100.00
10480;BME280;12789;42.610;23.040;2022-11-15T08:18:00;93945.72;;;6.91;100.00
10480;BME280;12789;42.610;23.040;2022-11-15T08:20:30;93954.13;;;6.82;100.00
10480;BME280;12789;42.610;23.040;2022-11-15T08:22:57;93946.50;;;6.69;100.00
10480;BME280;12789;42.610;23.040;2022-11-15T08:25:25;93952.03;;;6.76;100.00
10480;BME280;12789;42.610;23.040;2022-11-15T08:27:53;93950.69;;;7.16;100.00
10480;BME280;12789;42.610;23.040;2022-11-15T08:30:21;93954.16;;;7.04;100.00
10480;BME280;12789;42.610;23.040;2022-11-15T08:32:50;93961.91;;;7.15;100.00
10480;BME280;12789;42.610;23.040;2022-11-15T08:35:17;93940.94;;;8.05;100.00
10480;BME280;12789;42.610;23.040;2022-11-15T08:37:46;93932.44;;;7.83;100.00
10480;BME280;12789;42.610;23.040;2022-11-15T08:40:14;93954.41;;;7.44;100.00
10480;BME280;12789;42.610;23.040;2022-11-15T08:42:41;93942.44;;;7.65;100.00
10480;BME280;12789;42.610;23.040;2022-11-15T08:45:09;93952.50;;;7.90;100.00
10480;BME280;12789;42.610;23.040;2022-11-15T08:47:36;93956.31;;;7.96;100.00
10480;BME280;12789;42.610;23.040;2022-11-15T08:50:03;93961.63;;;8.37;100.00
10480;BME280;12789;42.610;23.040;2022-11-15T08:52:31;93957.38;;;8.47;100.00
10480;BME280;12789;42.610;23.040;2022-11-15T08:55:00;93930.25;;;9.53;100.00
10480;BME280;12789;42.610;23.040;2022-11-15T08:57:28;93937.16;;;11.34;100.00
10480;BME280;12789;42.610;23.040;2022-11-15T08:59:55;93960.94;;;9.37;100.00
10480;BME280;12789;42.610;23.040;2022-11-15T09:02:23;93953.81;;;9.50;99.41
10480;BME280;12789;42.610;23.040;2022-11-15T09:04:51;93956.34;;;9.40;96.86
10480;BME280;12789;42.610;23.040;2022-11-15T09:07:18;93988.28;;;10.38;96.38
10480;BME280;12789;42.610;23.040;2022-11-15T09:09:45;93950.44;;;10.08;96.69
10480;BME280;12789;42.610;23.040;2022-11-15T09:12:13;93926.78;;;10.22;95.94
10480;BME280;12789;42.610;23.040;2022-11-15T09:14:41;93945.19;;;10.85;91.46
10480;BME280;12789;42.610;23.040;2022-11-15T09:17:08;93898.81;;;10.53;89.78
10480;BME280;12789;42.610;23.040;2022-11-15T09:19:35;93920.91;;;10.57;88.98
10480;BME280;12789;42.610;23.040;2022-11-15T09:22:05;93933.13;;;11.03;88.05
10480;BME280;12789;42.610;23.040;2022-11-15T09:24:32;93933.91;;;11.22;87.06
10480;BME280;12789;42.610;23.040;2022-11-15T09:26:59;93906.75;;;11.63;85.95
10480;BME280;12789;42.610;23.040;2022-11-15T09:29:28;93886.00;;;13.86;92.94
10480;BME280;12789;42.610;23.040;2022-11-15T09:31:55;93896.56;;;12.40;83.91
10480;BME280;12789;42.610;23.040;2022-11-15T09:34:22;93907.72;;;12.50;84.82
10480;BME280;12789;42.610;23.040;2022-11-15T09:36:49;93911.03;;;12.25;84.12
10480;BME280;12789;42.610;23.040;2022-11-15T09:39:16;93878.69;;;12.20;84.04
10480;BME280;12789;42.610;23.040;2022-11-15T09:41:52;93901.91;;;12.39;81.82
10480;BME280;12789;42.610;23.040;2022-11-15T09:44:55;93857.59;;;12.40;80.25
10480;BME280;12789;42.610;23.040;2022-11-15T09:47:43;93906.03;;;13.52;81.85
10480;BME280;12789;42.610;23.040;2022-11-15T09:50:20;93891.91;;;14.04;79.98
10480;BME280;12789;42.610;23.040;2022-11-15T09:52:55;93888.84;;;13.67;77.99
10480;BME280;12789;42.610;23.040;2022-11-15T09:55:33;93864.31;;;14.19;77.43
10480;BME280;12789;42.610;23.040;2022-11-15T09:58:07;93861.06;;;14.33;76.58
10480;BME280;12789;42.610;23.040;2022-11-15T10:00:42;93846.25;;;15.13;77.64
10480;BME280;12789;42.610;23.040;2022-11-15T10:03:14;93871.53;;;14.81;73.56
10480;BME280;12789;42.610;23.040;2022-11-15T10:05:43;93875.09;;;14.32;74.56
10480;BME280;12789;42.610;23.040;2022-11-15T10:08:26;93865.50;;;13.83;74.45
10480;BME280;12789;42.610;23.040;2022-11-15T10:10:59;93851.94;;;14.37;74.51
10480;BME280;12789;42.610;23.040;2022-11-15T10:13:30;93848.91;;;15.60;73.26
10480;BME280;12789;42.610;23.040;2022-11-15T10:16:07;93836.53;;;15.54;70.87
10480;BME280;12789;42.610;23.040;2022-11-15T10:18:46;93820.66;;;15.94;68.55
10480;BME280;12789;42.610;23.040;2022-11-15T10:21:17;93835.09;;;15.82;68.81
10480;BME280;12789;42.610;23.040;2022-11-15T10:23:46;93826.47;;;16.04;67.09
10480;BME280;12789;42.610;23.040;2022-11-15T10:26:15;93827.44;;;16.63;66.21
10480;BME280;12789;42.610;23.040;2022-11-15T10:28:43;93810.94;;;16.33;65.89
10480;BME280;12789;42.610;23.040;2022-11-15T10:31:23;93800.75;;;16.46;68.43
10480;BME280;12789;42.610;23.040;2022-11-15T10:33:51;93793.88;;;16.67;67.36
10480;BME280;12789;42.610;23.040;2022-11-15T10:36:20;93789.91;;;17.22;64.50
10480;BME280;12789;42.610;23.040;2022-11-15T10:38:54;93786.16;;;16.51;66.14
10480;BME280;12789;42.610;23.040;2022-11-15T10:41:29;93782.50;;;16.38;66.09
10480;BME280;12789;42.610;23.040;2022-11-15T10:47:20;93754.97;;;17.44;65.20
10480;BME280;12789;42.610;23.040;2022-11-15T10:49:54;93760.28;;;17.07;63.61
10480;BME280;12789;42.610;23.040;2022-11-15T10:52:22;93748.56;;;17.97;64.16
10480;BME280;12789;42.610;23.040;2022-11-15T10:54:52;93743.25;;;18.95;61.15
10480;BME280;12789;42.610;23.040;2022-11-15T10:57:22;93728.56;;;18.52;60.71
10480;BME280;12789;42.610;23.040;2022-11-15T10:59:52;93715.78;;;18.70;64.97
10480;BME280;12789;42.610;23.040;2022-11-15T11:02:36;93726.28;;;18.07;62.28
10480;BME280;12789;42.610;23.040;2022-11-15T11:07:56;93723.00;;;19.50;60.37
10480;BME280;12789;42.610;23.040;2022-11-15T11:10:24;93704.91;;;19.07;59.58
10480;BME280;12789;42.610;23.040;2022-11-15T11:12:51;93689.81;;;18.12;60.34
10480;BME280;12789;42.610;23.040;2022-11-15T11:15:19;93711.59;;;19.83;58.93
10480;BME280;12789;42.610;23.040;2022-11-15T11:17:57;93677.19;;;19.91;55.92
10480;BME280;12789;42.610;23.040;2022-11-15T11:20:34;93697.56;;;20.23;56.90
10480;BME280;12789;42.610;23.040;2022-11-15T11:23:15;93659.38;;;19.80;56.31
10480;BME280;12789;42.610;23.040;2022-11-15T11:25:51;93667.91;;;19.89;55.69
10480;BME280;12789;42.610;23.040;2022-11-15T11:28:32;93673.66;;;20.31;54.30
10480;BME280;12789;42.610;23.040;2022-11-15T11:31:13;93659.34;;;18.93;54.64
10480;BME280;12789;42.610;23.040;2022-11-15T11:33:51;93663.44;;;19.02;54.75
10480;BME280;12789;42.610;23.040;2022-11-15T11:36:26;93625.91;;;19.08;55.06
10480;BME280;12789;42.610;23.040;2022-11-15T11:39:00;93654.63;;;20.75;54.54
10480;BME280;12789;42.610;23.040;2022-11-15T11:41:53;93651.78;;;21.02;52.93
10480;BME280;12789;42.610;23.040;2022-11-15T11:44:32;93650.13;;;21.14;51.63
10480;BME280;12789;42.610;23.040;2022-11-15T11:47:01;93625.22;;;20.97;52.83
10480;BME280;12789;42.610;23.040;2022-11-15T11:49:37;93646.09;;;20.60;52.60
10480;BME280;12789;42.610;23.040;2022-11-15T11:52:11;93639.16;;;21.17;51.32
10480;BME280;12789;42.610;23.040;2022-11-15T11:54:47;93605.63;;;21.43;49.41
10480;BME280;12789;42.610;23.040;2022-11-15T11:57:25;93642.47;;;20.67;51.03
10480;BME280;12789;42.610;23.040;2022-11-15T12:00:00;93610.63;;;19.97;51.55
10480;BME280;12789;42.610;23.040;2022-11-15T12:02:30;93626.09;;;18.18;57.69
10480;BME280;12789;42.610;23.040;2022-11-15T12:05:05;93619.81;;;20.34;51.44
10480;BME280;12789;42.610;23.040;2022-11-15T12:07:36;93618.19;;;20.52;49.60
10480;BME280;12789;42.610;23.040;2022-11-15T12:10:16;93601.66;;;21.59;48.53
10480;BME280;12789;42.610;23.040;2022-11-15T12:12:55;93576.44;;;21.76;48.92
10480;BME280;12789;42.610;23.040;2022-11-15T12:15:26;93577.84;;;21.78;47.63
10480;BME280;12789;42.610;23.040;2022-11-15T12:17:55;93580.63;;;22.14;47.59
10480;BME280;12789;42.610;23.040;2022-11-15T12:20:27;93571.78;;;22.02;46.93
10480;BME280;12789;42.610;23.040;2022-11-15T12:22:58;93595.09;;;20.22;48.17
10480;BME280;12789;42.610;23.040;2022-11-15T12:25:31;93575.94;;;21.04;48.02
10480;BME280;12789;42.610;23.040;2022-11-15T12:28:07;93578.66;;;21.35;47.34
10480;BME280;12789;42.610;23.040;2022-11-15T12:30:44;93556.78;;;19.74;48.93
10480;BME280;12789;42.610;23.040;2022-11-15T12:33:30;93580.84;;;19.64;51.15
10480;BME280;12789;42.610;23.040;2022-11-15T12:36:03;93583.91;;;18.40;53.99
10480;BME280;12789;42.610;23.040;2022-11-15T12:38:51;93575.84;;;19.16;52.46
10480;BME280;12789;42.610;23.040;2022-11-15T12:41:24;93556.47;;;19.24;50.85
10480;BME280;12789;42.610;23.040;2022-11-15T12:43:52;93554.59;;;18.37;52.84
10480;BME280;12789;42.610;23.040;2022-11-15T12:46:24;93530.47;;;18.48;53.47
10480;BME280;12789;42.610;23.040;2022-11-15T12:49:43;93561.94;;;17.51;55.75
10480;BME280;12789;42.610;23.040;2022-11-15T12:52:12;93566.66;;;17.62;55.87
10480;BME280;12789;42.610;23.040;2022-11-15T12:55:01;93566.06;;;17.60;56.29
10480;BME280;12789;42.610;23.040;2022-11-15T12:57:32;93551.91;;;16.69;58.04
10480;BME280;12789;42.610;23.040;2022-11-15T13:00:01;93558.94;;;17.54;57.90
10480;BME280;12789;42.610;23.040;2022-11-15T13:02:32;93562.91;;;16.79;58.31
10480;BME280;12789;42.610;23.040;2022-11-15T13:08:06;93545.75;;;16.91;58.35
10480;BME280;12789;42.610;23.040;2022-11-15T13:10:34;93546.78;;;16.61;59.27
10480;BME280;12789;42.610;23.040;2022-11-15T13:13:03;93531.09;;;16.61;59.14
10480;BME280;12789;42.610;23.040;2022-11-15T13:15:34;93536.94;;;16.63;59.94
10480;BME280;12789;42.610;23.040;2022-11-15T13:21:22;93555.63;;;16.60;60.39
10480;BME280;12789;42.610;23.040;2022-11-15T13:24:13;93558.78;;;16.70;60.56
10480;BME280;12789;42.610;23.040;2022-11-15T13:26:42;93558.94;;;16.83;60.24